createdAt,value
2023-07-20T00:00:59.356Z,99768.76
2023-07-20T00:03:26.962Z,99766.05
2023-07-20T00:05:54.265Z,99765.96
2023-07-20T00:08:21.501Z,99767.27
2023-07-20T00:10:48.808Z,99759.08
2023-07-20T00:13:17.360Z,99757.36
2023-07-20T00:15:45.359Z,99754.32
2023-07-20T00:18:14.308Z,99759.48
2023-07-20T00:20:41.612Z,99752.06
2023-07-20T00:23:08.923Z,99747.67
2023-07-20T00:25:36.719Z,99747.58
2023-07-20T00:28:04.008Z,99752.90
2023-07-20T00:30:31.278Z,99751.84
2023-07-20T00:33:00.484Z,99746.18
2023-07-20T00:35:27.743Z,99746.36
2023-07-20T00:37:54.998Z,99737.64
2023-07-20T00:40:23.007Z,99735.57
2023-07-20T00:42:50.487Z,99734.45
2023-07-20T00:45:22.598Z,99731.21
2023-07-20T00:47:49.910Z,99726.85
2023-07-20T00:50:17.097Z,99729.27
2023-07-20T00:52:46.517Z,99733.27
2023-07-20T00:55:13.742Z,99738.15
2023-07-20T00:57:40.922Z,99743.70
2023-07-20T01:00:09.023Z,99734.00
2023-07-20T01:02:37.014Z,99720.31
2023-07-20T01:05:05.129Z,99727.06
2023-07-20T01:07:37.837Z,99726.65
2023-07-20T01:10:13.745Z,99718.86
2023-07-20T01:12:44.907Z,99715.48
2023-07-20T01:15:12.338Z,99715.16
2023-07-20T01:17:39.744Z,99715.20
2023-07-20T01:20:12.192Z,99718.81
2023-07-20T01:22:57.780Z,99720.86
2023-07-20T01:26:05.036Z,99725.39
2023-07-20T01:29:01.476Z,99717.55
2023-07-20T01:31:35.314Z,99711.23
2023-07-20T01:34:03.507Z,99712.48
2023-07-20T01:36:32.312Z,99712.26
2023-07-20T01:38:59.587Z,99716.07
2023-07-20T01:41:26.781Z,99716.64
2023-07-20T01:43:53.898Z,99719.36
2023-07-20T01:46:23.032Z,99716.62
2023-07-20T01:48:52.302Z,99710.52
2023-07-20T01:51:19.586Z,99711.55
2023-07-20T01:53:49.217Z,99726.40
2023-07-20T01:56:16.942Z,99729.73
2023-07-20T01:58:44.152Z,99725.71
2023-07-20T02:01:11.389Z,99719.77
2023-07-20T02:03:38.663Z,99723.54
2023-07-20T02:06:05.873Z,99728.39
2023-07-20T02:08:33.013Z,99737.81
2023-07-20T02:11:00.247Z,99735.13
2023-07-20T02:13:27.500Z,99736.06
2023-07-20T02:15:55.050Z,99728.48
2023-07-20T02:18:22.367Z,99731.33
2023-07-20T02:20:49.498Z,99730.20
2023-07-20T02:23:18.106Z,99736.46
2023-07-20T02:25:45.753Z,99741.38
2023-07-20T02:28:15.467Z,99739.04
2023-07-20T02:30:43.024Z,99734.70
2023-07-20T02:33:10.359Z,99731.61
2023-07-20T02:35:37.506Z,99722.29
2023-07-20T02:38:05.992Z,99723.93
2023-07-20T02:40:33.263Z,99718.15
2023-07-20T02:43:00.527Z,99721.56
2023-07-20T02:45:27.845Z,99718.30
2023-07-20T02:47:55.144Z,99717.09
2023-07-20T02:50:22.317Z,99732.21
2023-07-20T02:52:49.671Z,99756.04
2023-07-20T02:55:17.113Z,99765.10
2023-07-20T02:57:44.278Z,99758.20
2023-07-20T03:00:12.985Z,99749.30
2023-07-20T03:02:40.237Z,99748.94
2023-07-20T03:05:08.978Z,99747.05
2023-07-20T03:07:37.759Z,99745.36
2023-07-20T03:10:05.941Z,99742.83
2023-07-20T03:12:35.560Z,99740.69
2023-07-20T03:15:07.001Z,99745.69
2023-07-20T03:17:34.494Z,99745.39
2023-07-20T03:20:03.980Z,99746.09
2023-07-20T03:22:32.026Z,99741.71
2023-07-20T03:24:59.510Z,99744.91
2023-07-20T03:27:27.488Z,99745.17
2023-07-20T03:29:55.076Z,99749.77
2023-07-20T03:32:23.887Z,99749.14
2023-07-20T03:34:51.504Z,99753.98
2023-07-20T03:37:18.757Z,99759.16
2023-07-20T03:39:46.138Z,99767.21
2023-07-20T03:42:13.415Z,99770.52
2023-07-20T03:44:42.016Z,99780.34
2023-07-20T03:47:10.596Z,99789.36
2023-07-20T03:49:38.055Z,99801.64
2023-07-20T03:52:05.976Z,99806.67
2023-07-20T03:54:33.210Z,99809.84
2023-07-20T03:57:02.052Z,99801.09
2023-07-20T03:59:30.922Z,99803.92
2023-07-20T04:01:58.109Z,99807.77
2023-07-20T04:04:25.288Z,99800.80
2023-07-20T04:06:52.994Z,99799.86
2023-07-20T04:09:20.483Z,99800.52
2023-07-20T04:11:47.735Z,99798.79
2023-07-20T04:14:14.984Z,99794.91
2023-07-20T04:16:42.311Z,99794.64
2023-07-20T04:19:10.479Z,99791.82
2023-07-20T04:21:42.400Z,99797.09
2023-07-20T04:24:09.688Z,99804.09
2023-07-20T04:26:38.324Z,99808.46
2023-07-20T04:29:05.621Z,99804.48
2023-07-20T04:31:35.784Z,99806.77
2023-07-20T04:34:04.337Z,99801.97
2023-07-20T04:36:33.600Z,99808.23
2023-07-20T04:39:00.905Z,99811.95
2023-07-20T04:41:35.986Z,99813.70
2023-07-20T04:44:03.309Z,99809.14
2023-07-20T04:46:31.713Z,99808.12
2023-07-20T04:49:04.888Z,99809.80
2023-07-20T04:51:36.620Z,99815.39
2023-07-20T04:54:03.904Z,99814.41
2023-07-20T04:56:35.142Z,99807.81
2023-07-20T04:59:04.491Z,99809.22
2023-07-20T05:01:32.151Z,99809.73
2023-07-20T05:03:59.470Z,99811.54
2023-07-20T05:06:27.544Z,99808.96
2023-07-20T05:08:54.837Z,99802.00
2023-07-20T05:11:22.597Z,99803.63
2023-07-20T05:13:50.645Z,99804.70
2023-07-20T05:16:18.632Z,99801.90
2023-07-20T05:18:46.127Z,99797.91
2023-07-20T05:21:14.793Z,99795.23
2023-07-20T05:23:43.083Z,99798.97
2023-07-20T05:26:10.759Z,99798.85
2023-07-20T05:28:40.872Z,99802.88
2023-07-20T05:31:08.076Z,99802.13
2023-07-20T05:33:36.039Z,99799.48
2023-07-20T05:36:03.328Z,99802.01
2023-07-20T05:38:30.572Z,99800.53
2023-07-20T05:41:01.370Z,99794.99
2023-07-20T05:43:28.540Z,99793.70
2023-07-20T05:45:55.831Z,99793.70
2023-07-20T05:48:23.146Z,99797.34
2023-07-20T05:50:50.815Z,99804.74
2023-07-20T05:53:18.089Z,99795.33
2023-07-20T05:55:45.701Z,99799.16
2023-07-20T05:58:12.810Z,99803.65
2023-07-20T06:00:40.049Z,99800.46
2023-07-20T06:03:08.117Z,99793.23
2023-07-20T06:05:35.459Z,99793.94
2023-07-20T06:08:02.740Z,99788.54
2023-07-20T06:10:33.078Z,99788.42
2023-07-20T06:13:00.226Z,99790.93
2023-07-20T06:15:28.805Z,99792.23
2023-07-20T06:17:57.581Z,99787.52
2023-07-20T06:20:25.110Z,99790.80
2023-07-20T06:22:52.369Z,99796.21
2023-07-20T06:25:21.298Z,99797.40
2023-07-20T06:27:52.689Z,99808.84
2023-07-20T06:30:20.109Z,99809.98
2023-07-20T06:32:47.423Z,99816.58
2023-07-20T06:35:15.176Z,99823.55
2023-07-20T06:37:42.332Z,99823.08
2023-07-20T06:45:13.878Z,99811.48
2023-07-20T06:47:41.323Z,99813.98
2023-07-20T06:50:08.892Z,99818.21
2023-07-20T06:52:36.363Z,99819.69
2023-07-20T06:55:05.955Z,99819.55
2023-07-20T06:57:34.164Z,99819.27
2023-07-20T07:00:05.837Z,99823.57
2023-07-20T07:02:33.013Z,99828.52
2023-07-20T07:05:01.012Z,99827.45
2023-07-20T07:07:46.212Z,99831.06
2023-07-20T07:10:14.084Z,99832.06
2023-07-20T07:12:41.548Z,99833.09
2023-07-20T07:15:09.616Z,99831.09
2023-07-20T07:17:38.562Z,99834.12
2023-07-20T07:20:11.155Z,99831.35
2023-07-20T07:22:40.087Z,99830.61
2023-07-20T07:25:09.247Z,99830.92
2023-07-20T07:27:36.614Z,99827.59
2023-07-20T07:30:06.891Z,99826.33
2023-07-20T07:32:34.839Z,99829.65
2023-07-20T07:35:03.074Z,99830.50
2023-07-20T07:37:33.388Z,99832.94
2023-07-20T07:40:05.846Z,99828.89
2023-07-20T07:42:33.142Z,99823.80
2023-07-20T07:45:00.328Z,99822.04
2023-07-20T07:47:27.514Z,99831.82
2023-07-20T07:49:54.749Z,99830.61
2023-07-20T07:52:22.948Z,99831.27
2023-07-20T07:54:50.174Z,99835.68
2023-07-20T07:57:17.549Z,99835.77
2023-07-20T07:59:44.782Z,99833.94
2023-07-20T08:02:12.022Z,99829.65
2023-07-20T08:04:41.609Z,99839.45
2023-07-20T08:07:09.028Z,99844.79
2023-07-20T08:09:36.254Z,99842.88
2023-07-20T08:12:05.132Z,99840.70
2023-07-20T08:14:32.420Z,99846.06
2023-07-20T08:17:00.119Z,99848.38
2023-07-20T08:19:28.183Z,99848.08
2023-07-20T08:21:55.618Z,99846.55
2023-07-20T08:24:22.863Z,99848.85
2023-07-20T08:26:50.203Z,99851.17
2023-07-20T08:29:17.440Z,99851.23
2023-07-20T08:31:44.654Z,99850.79
2023-07-20T08:34:24.387Z,99855.95
2023-07-20T08:36:57.542Z,99855.19
2023-07-20T08:39:25.607Z,99855.73
2023-07-20T08:41:56.117Z,99853.83
2023-07-20T08:44:24.834Z,99852.91
2023-07-20T08:46:52.104Z,99853.86
2023-07-20T08:49:19.880Z,99849.64
2023-07-20T08:51:47.222Z,99843.41
2023-07-20T08:54:14.976Z,99847.20
2023-07-20T08:56:42.532Z,99849.88
2023-07-20T08:59:09.735Z,99849.98
2023-07-20T09:01:37.847Z,99850.84
2023-07-20T09:04:05.199Z,99855.48
2023-07-20T09:06:32.454Z,99851.23
2023-07-20T09:09:00.102Z,99854.48
2023-07-20T09:11:27.702Z,99850.38
2023-07-20T09:14:06.368Z,99853.51
2023-07-20T09:16:33.758Z,99855.27
2023-07-20T09:19:01.373Z,99860.26
2023-07-20T09:21:32.169Z,99860.80
2023-07-20T09:23:59.400Z,99858.29
2023-07-20T09:26:28.762Z,99858.23
2023-07-20T09:28:58.096Z,99858.36
2023-07-20T09:31:25.335Z,99859.02
2023-07-20T09:37:02.277Z,99860.04
2023-07-20T09:39:13.008Z,99866.34
2023-07-20T09:41:47.227Z,99870.63
2023-07-20T09:51:49.621Z,99868.21
2023-07-20T09:54:16.957Z,99865.41
2023-07-20T09:56:44.153Z,99864.46
2023-07-20T09:59:11.501Z,99870.63
2023-07-20T10:01:39.957Z,99866.80
2023-07-20T10:04:07.093Z,99863.39
2023-07-20T10:06:34.691Z,99863.27
2023-07-20T10:09:04.082Z,99864.64
2023-07-20T10:11:34.049Z,99860.02
2023-07-20T10:14:01.629Z,99861.08
2023-07-20T10:16:35.352Z,99866.05
2023-07-20T10:21:44.578Z,99862.08
2023-07-20T10:24:13.058Z,99856.84
2023-07-20T10:26:42.306Z,99861.16
2023-07-20T10:29:09.855Z,99857.57
2023-07-20T10:31:37.600Z,99859.67
2023-07-20T10:34:04.805Z,99856.77
2023-07-20T10:36:32.369Z,99855.27
2023-07-20T10:39:00.282Z,99856.67
2023-07-20T10:41:39.160Z,99853.21
2023-07-20T10:44:11.282Z,99851.77
2023-07-20T10:46:41.692Z,99849.91
2023-07-20T10:49:10.681Z,99848.28
2023-07-20T10:51:49.385Z,99855.62
2023-07-20T10:54:19.604Z,99858.30
2023-07-20T10:56:52.790Z,99864.97
2023-07-20T10:59:26.244Z,99860.73
2023-07-20T11:01:56.888Z,99854.13
2023-07-20T11:04:43.509Z,99861.48
2023-07-20T11:07:10.922Z,99862.40
2023-07-20T11:09:39.405Z,99860.26
2023-07-20T11:12:15.271Z,99857.67
2023-07-20T11:14:54.507Z,99854.83
2023-07-20T11:17:24.091Z,99852.20
2023-07-20T11:22:22.193Z,99853.20
2023-07-20T11:24:50.798Z,99846.42
2023-07-20T11:27:20.122Z,99845.10
2023-07-20T11:29:47.348Z,99846.38
2023-07-20T11:32:14.648Z,99839.97
2023-07-20T11:34:41.940Z,99836.20
2023-07-20T11:39:40.077Z,99838.75
2023-07-20T11:42:08.312Z,99839.02
2023-07-20T11:44:35.715Z,99839.59
2023-07-20T11:47:10.779Z,99835.98
2023-07-20T11:49:42.622Z,99836.45
2023-07-20T11:52:17.204Z,99838.67
2023-07-20T11:54:48.688Z,99835.10
2023-07-20T11:57:20.136Z,99834.20
2023-07-20T11:59:59.104Z,99833.52
2023-07-20T12:02:28.884Z,99831.83
2023-07-20T12:04:56.452Z,99832.93
2023-07-20T12:07:23.776Z,99838.36
2023-07-20T12:10:11.742Z,99835.81
2023-07-20T12:12:42.937Z,99833.48
2023-07-20T12:15:23.972Z,99826.89
2023-07-20T12:17:54.638Z,99832.33
2023-07-20T12:20:28.737Z,99839.01
2023-07-20T12:23:00.037Z,99827.42
2023-07-20T12:25:44.083Z,99822.02
2023-07-20T12:28:15.620Z,99823.60
2023-07-20T12:30:43.703Z,99825.99
2023-07-20T12:33:12.945Z,99823.86
2023-07-20T12:35:40.104Z,99826.41
2023-07-20T12:38:07.669Z,99828.21
2023-07-20T12:40:35.688Z,99831.46
2023-07-20T12:43:03.049Z,99828.35
2023-07-20T12:45:30.294Z,99824.97
2023-07-20T12:47:57.791Z,99829.42
2023-07-20T12:50:25.010Z,99830.02
2023-07-20T12:52:52.308Z,99828.33
2023-07-20T12:55:19.832Z,99830.48
2023-07-20T12:57:47.400Z,99828.52
2023-07-20T13:00:15.695Z,99823.42
2023-07-20T13:02:43.116Z,99825.68
2023-07-20T13:05:11.454Z,99821.66
2023-07-20T13:10:11.767Z,99818.36
2023-07-20T13:12:39.414Z,99820.66
2023-07-20T13:15:08.071Z,99821.82
2023-07-20T13:17:40.219Z,99816.34
2023-07-20T13:20:10.216Z,99823.33
2023-07-20T13:22:38.000Z,99822.59
2023-07-20T13:25:05.571Z,99819.25
2023-07-20T13:27:33.221Z,99820.66
2023-07-20T13:30:03.976Z,99818.71
2023-07-20T13:32:34.055Z,99817.92
2023-07-20T13:35:03.128Z,99816.67
2023-07-20T13:37:30.190Z,99812.79
2023-07-20T13:39:57.806Z,99821.86
2023-07-20T13:42:25.365Z,99822.55
2023-07-20T14:44:55.068Z,99804.32
2023-07-20T14:47:23.263Z,99807.96
2023-07-20T14:49:50.917Z,99808.11
2023-07-20T14:52:18.982Z,99811.16
2023-07-20T14:54:46.661Z,99817.00
2023-07-20T14:57:17.308Z,99816.06
2023-07-20T14:59:47.062Z,99815.24
2023-07-20T15:02:14.404Z,99815.91
2023-07-20T15:04:51.872Z,99820.98
2023-07-20T15:07:25.338Z,99814.06
2023-07-20T15:09:52.862Z,99816.86
2023-07-20T15:12:20.106Z,99818.63
2023-07-20T15:14:51.456Z,99821.27
2023-07-20T15:17:18.735Z,99817.25
2023-07-20T15:19:48.208Z,99809.24
2023-07-20T15:22:15.979Z,99814.71
2023-07-20T15:24:43.405Z,99813.79
2023-07-20T15:27:10.674Z,99813.90
2023-07-20T15:29:38.326Z,99819.80
2023-07-20T15:32:07.679Z,99820.33
2023-07-20T15:34:35.275Z,99820.78
2023-07-20T15:37:02.486Z,99821.45
2023-07-20T15:39:29.651Z,99816.69
2023-07-20T15:41:56.955Z,99822.44
2023-07-20T15:44:24.268Z,99826.16
2023-07-20T15:46:51.953Z,99825.69
2023-07-20T15:49:19.391Z,99827.74
2023-07-20T15:51:48.697Z,99828.96
2023-07-20T15:54:16.281Z,99833.54
2023-07-20T15:56:44.004Z,99835.96
2023-07-20T15:59:15.785Z,99841.63
2023-07-20T16:01:44.381Z,99841.58
2023-07-20T16:04:12.802Z,99840.93
2023-07-20T16:06:40.051Z,99835.77
2023-07-20T16:09:07.345Z,99837.98
2023-07-20T16:11:37.064Z,99838.03
2023-07-20T16:14:06.985Z,99837.81
2023-07-20T16:16:35.981Z,99840.27
2023-07-20T16:19:03.261Z,99835.22
2023-07-20T16:21:31.555Z,99838.79
2023-07-20T16:24:00.479Z,99839.29
2023-07-20T16:26:27.922Z,99838.64
2023-07-20T16:31:26.696Z,99840.71
2023-07-20T16:34:06.004Z,99844.73
2023-07-20T16:44:09.540Z,99843.84
2023-07-20T16:49:10.485Z,99851.02
2023-07-20T16:51:37.685Z,99848.60
2023-07-20T16:54:09.123Z,99851.51
2023-07-20T16:56:36.413Z,99850.55
2023-07-20T16:59:06.230Z,99851.73
2023-07-20T17:01:37.533Z,99856.64
2023-07-20T17:04:04.914Z,99858.11
2023-07-20T17:06:32.256Z,99861.23
2023-07-20T17:09:01.834Z,99860.98
2023-07-20T17:11:29.477Z,99858.66
2023-07-20T17:13:57.250Z,99855.83
2023-07-20T17:16:24.531Z,99855.26
2023-07-20T17:18:51.847Z,99861.45
2023-07-20T17:21:20.573Z,99860.98
2023-07-20T17:28:55.364Z,99869.20
2023-07-20T17:31:28.006Z,99871.30
2023-07-20T17:33:56.226Z,99871.41
2023-07-20T17:38:54.833Z,99873.80
2023-07-20T17:41:23.545Z,99872.21
2023-07-20T17:43:51.348Z,99875.71
2023-07-20T17:48:52.146Z,99879.69
2023-07-20T17:51:22.718Z,99880.42
2023-07-20T17:53:50.833Z,99877.92
2023-07-20T17:56:18.353Z,99884.56
2023-07-20T17:58:45.642Z,99885.19
2023-07-20T18:01:16.949Z,99884.88
2023-07-20T18:03:44.733Z,99887.58
2023-07-20T18:06:11.969Z,99884.30
2023-07-20T18:08:39.493Z,99882.64
2023-07-20T18:11:07.719Z,99886.05
2023-07-20T18:13:37.609Z,99886.55
2023-07-20T18:16:06.309Z,99889.89
2023-07-20T18:18:36.193Z,99897.42
2023-07-20T18:21:03.317Z,99901.52
2023-07-20T18:23:30.476Z,99902.86
2023-07-20T18:25:57.740Z,99906.08
2023-07-20T18:28:24.897Z,99906.80
2023-07-20T18:30:52.040Z,99910.73
2023-07-20T18:33:20.073Z,99909.66
2023-07-20T18:35:47.809Z,99908.15
2023-07-20T18:38:14.948Z,99908.03
2023-07-20T18:40:42.177Z,99910.29
2023-07-20T18:43:09.892Z,99912.36
2023-07-20T18:45:37.139Z,99913.88
2023-07-20T18:48:04.961Z,99920.77
2023-07-20T18:50:33.361Z,99925.71
2023-07-20T18:53:01.754Z,99929.86
2023-07-20T18:55:29.290Z,99933.05
2023-07-20T18:57:57.592Z,99933.62
2023-07-20T19:00:25.028Z,99937.57
2023-07-20T19:02:53.051Z,99934.13
2023-07-20T19:05:21.733Z,99937.20
2023-07-20T19:07:59.450Z,99938.74
2023-07-20T19:10:28.727Z,99934.63
2023-07-20T19:12:59.448Z,99938.65
2023-07-20T19:15:27.236Z,99939.89
2023-07-20T19:17:55.164Z,99944.81
2023-07-20T19:20:25.132Z,99948.80
2023-07-20T19:22:52.155Z,99956.94
2023-07-20T19:25:22.592Z,99963.36
2023-07-20T19:27:53.527Z,99968.36
2023-07-20T19:30:21.251Z,99973.36
2023-07-20T19:32:48.888Z,99974.95
2023-07-20T19:35:16.185Z,99980.06
2023-07-20T19:37:45.759Z,99981.34
2023-07-20T19:40:14.767Z,99982.80
2023-07-20T19:42:43.867Z,99984.15
2023-07-20T19:45:11.394Z,99987.22
2023-07-20T19:47:38.714Z,99989.91
2023-07-20T19:50:07.328Z,99994.27
2023-07-20T19:52:36.411Z,99997.50
2023-07-20T19:55:06.978Z,99998.96
2023-07-20T20:00:13.246Z,100008.79
2023-07-20T20:05:11.825Z,100012.98
2023-07-20T20:07:39.145Z,100015.44
2023-07-20T20:10:06.831Z,100018.98
2023-07-20T20:12:35.369Z,100021.11
2023-07-20T20:15:02.551Z,100025.63
2023-07-20T20:17:29.778Z,100025.83
2023-07-20T20:19:57.208Z,100026.20
2023-07-20T20:22:26.039Z,100026.95
2023-07-20T20:24:53.880Z,100025.47
2023-07-20T20:27:21.096Z,100025.13
2023-07-20T20:29:48.464Z,100022.11
2023-07-20T20:32:15.635Z,100024.83
2023-07-20T20:34:42.807Z,100023.48
2023-07-20T20:37:09.918Z,100023.91
2023-07-20T20:39:37.221Z,100024.76
2023-07-20T20:42:04.605Z,100023.30
2023-07-20T20:44:32.927Z,100028.18
2023-07-20T20:47:04.075Z,100026.35
2023-07-20T20:49:32.512Z,100027.62
2023-07-20T20:51:59.601Z,100027.48
2023-07-20T20:54:26.756Z,100025.13
2023-07-20T20:56:57.777Z,100025.23
2023-07-20T20:59:24.802Z,100025.88
2023-07-20T21:01:51.861Z,100030.02
2023-07-20T21:04:19.038Z,100029.70
2023-07-20T21:06:46.165Z,100026.23
2023-07-20T21:09:13.184Z,100024.67
2023-07-20T21:11:40.394Z,100021.75
2023-07-20T21:14:07.560Z,100019.01
2023-07-20T21:16:34.830Z,100016.52
2023-07-20T21:19:02.894Z,100017.48
2023-07-20T21:21:30.364Z,100021.02
2023-07-20T21:23:57.405Z,100033.58
2023-07-20T21:26:25.944Z,100037.30
2023-07-20T21:28:53.900Z,100036.01
2023-07-20T21:31:21.041Z,100043.06
2023-07-20T21:33:49.132Z,100038.91
2023-07-20T21:36:16.198Z,100040.48
2023-07-20T21:38:43.538Z,100042.45
2023-07-20T21:41:11.542Z,100045.56
2023-07-20T21:43:39.081Z,100046.14
2023-07-20T21:46:06.372Z,100042.02
2023-07-20T21:48:35.141Z,100040.15
2023-07-20T21:51:02.216Z,100048.26
2023-07-20T21:53:30.561Z,100052.80
2023-07-20T21:55:59.200Z,100054.89
2023-07-20T21:58:26.313Z,100058.63
2023-07-20T22:00:54.584Z,100057.91
2023-07-20T22:03:23.360Z,100056.58
2023-07-20T22:05:57.378Z,100050.00
2023-07-20T22:08:26.409Z,100057.48
2023-07-20T22:10:55.018Z,100059.73
2023-07-20T22:13:22.564Z,100065.82
2023-07-20T22:15:53.111Z,100067.42
2023-07-20T22:18:34.781Z,100070.27
2023-07-20T22:21:06.473Z,100073.95
2023-07-20T22:23:34.092Z,100078.06
2023-07-20T22:26:01.248Z,100079.02
2023-07-20T22:28:29.066Z,100084.30
2023-07-20T22:30:59.694Z,100085.02
2023-07-20T22:33:32.929Z,100085.61
2023-07-20T22:35:59.999Z,100083.20
2023-07-20T22:38:27.347Z,100082.04
2023-07-20T22:40:54.577Z,100077.95
2023-07-20T22:43:26.740Z,100077.73
2023-07-20T22:45:56.274Z,100079.66
2023-07-20T22:48:25.057Z,100081.21
2023-07-20T22:50:54.135Z,100079.38
2023-07-20T22:53:23.338Z,100082.89
2023-07-20T22:55:50.419Z,100077.78
2023-07-20T22:58:17.532Z,100078.41
2023-07-20T23:00:46.546Z,100075.80
2023-07-20T23:03:13.930Z,100077.78
2023-07-20T23:05:41.258Z,100078.40
2023-07-20T23:08:08.497Z,100076.15
2023-07-20T23:10:36.268Z,100077.95
2023-07-20T23:13:04.275Z,100078.98
2023-07-20T23:15:31.452Z,100077.90
2023-07-20T23:17:58.685Z,100079.00
2023-07-20T23:20:29.575Z,100082.08
2023-07-20T23:22:57.381Z,100083.36
2023-07-20T23:25:24.453Z,100086.52
2023-07-20T23:27:57.082Z,100089.33
2023-07-20T23:30:24.869Z,100095.86
2023-07-20T23:32:53.983Z,100098.63
2023-07-20T23:35:23.108Z,100103.55
2023-07-20T23:37:50.810Z,100102.58
2023-07-20T23:40:18.322Z,100101.58
2023-07-20T23:42:47.098Z,100103.08
2023-07-20T23:45:15.736Z,100109.95
2023-07-20T23:47:43.655Z,100109.40
2023-07-20T23:50:11.474Z,100110.21
2023-07-20T23:52:38.683Z,100114.33
2023-07-20T23:55:08.325Z,100114.21
2023-07-20T23:57:36.910Z,100113.31
